sensor_id;sensor_type;location;lat;lon;timestamp;temperature;humidity
46634;DHT22;32362;49.986;8.026;2022-10-31T00:09:03;11.80;95.80
46634;DHT22;32362;49.986;8.026;2022-10-31T00:35:49;11.70;96.40
46634;DHT22;32362;49.986;8.026;2022-10-31T01:02:30;11.80;95.60
46634;DHT22;32362;49.986;8.026;2022-10-31T01:29:11;11.80;95.30
46634;DHT22;32362;49.986;8.026;2022-10-31T01:55:52;11.50;96.00
46634;DHT22;32362;49.986;8.026;2022-10-31T02:49:53;11.50;95.70
46634;DHT22;32362;49.986;8.026;2022-10-31T03:16:47;11.40;95.50
46634;DHT22;32362;49.986;8.026;2022-10-31T03:43:33;11.10;95.80
46634;DHT22;32362;49.986;8.026;2022-10-31T04:10:17;11.00;95.20
46634;DHT22;32362;49.986;8.026;2022-10-31T04:37:00;10.70;96.80
46634;DHT22;32362;49.986;8.026;2022-10-31T05:03:41;10.50;97.20
46634;DHT22;32362;49.986;8.026;2022-10-31T05:30:25;10.70;96.00
46634;DHT22;32362;49.986;8.026;2022-10-31T05:57:06;10.60;96.50
46634;DHT22;32362;49.986;8.026;2022-10-31T06:23:47;10.60;96.20
46634;DHT22;32362;49.986;8.026;2022-10-31T06:50:40;10.50;95.70
46634;DHT22;32362;49.986;8.026;2022-10-31T07:17:23;10.70;96.40
46634;DHT22;32362;49.986;8.026;2022-10-31T07:44:08;10.90;95.90
46634;DHT22;32362;49.986;8.026;2022-10-31T08:11:07;11.90;95.90
46634;DHT22;32362;49.986;8.026;2022-10-31T08:37:53;13.30;95.70
46634;DHT22;32362;49.986;8.026;2022-10-31T09:04:34;13.80;93.60
46634;DHT22;32362;49.986;8.026;2022-10-31T09:31:15;14.30;93.30
46634;DHT22;32362;49.986;8.026;2022-10-31T09:58:20;15.10;92.60
46634;DHT22;32362;49.986;8.026;2022-10-31T10:25:18;16.20;90.50
46634;DHT22;32362;49.986;8.026;2022-10-31T11:18:45;18.00;88.70
46634;DHT22;32362;49.986;8.026;2022-10-31T11:45:33;18.20;88.30
46634;DHT22;32362;49.986;8.026;2022-10-31T12:12:18;18.70;88.60
46634;DHT22;32362;49.986;8.026;2022-10-31T13:06:07;21.10;79.20
46634;DHT22;32362;49.986;8.026;2022-10-31T13:32:52;19.30;84.10
46634;DHT22;32362;49.986;8.026;2022-10-31T13:59:37;18.80;86.20
46634;DHT22;32362;49.986;8.026;2022-10-31T14:53:01;21.30;80.20
46634;DHT22;32362;49.986;8.026;2022-10-31T15:19:43;18.80;87.50
46634;DHT22;32362;49.986;8.026;2022-10-31T15:46:25;17.90;91.00
46634;DHT22;32362;49.986;8.026;2022-10-31T16:13:08;17.30;92.00
46634;DHT22;32362;49.986;8.026;2022-10-31T16:39:49;16.70;93.20
46634;DHT22;32362;49.986;8.026;2022-10-31T17:06:29;15.90;94.50
46634;DHT22;32362;49.986;8.026;2022-10-31T17:33:12;15.10;95.30
46634;DHT22;32362;49.986;8.026;2022-10-31T17:59:53;15.00;95.90
46634;DHT22;32362;49.986;8.026;2022-10-31T18:26:34;14.30;96.50
46634;DHT22;32362;49.986;8.026;2022-10-31T18:53:15;13.70;97.10
46634;DHT22;32362;49.986;8.026;2022-10-31T19:19:55;13.50;97.80
46634;DHT22;32362;49.986;8.026;2022-10-31T19:46:36;13.50;96.50
46634;DHT22;32362;49.986;8.026;2022-10-31T20:13:17;13.00;97.20
46634;DHT22;32362;49.986;8.026;2022-10-31T20:39:57;12.90;96.40
46634;DHT22;32362;49.986;8.026;2022-10-31T21:06:38;12.80;96.10
46634;DHT22;32362;49.986;8.026;2022-10-31T21:33:19;12.40;95.80
46634;DHT22;32362;49.986;8.026;2022-10-31T21:59:59;12.20;95.40
46634;DHT22;32362;49.986;8.026;2022-10-31T22:26:40;12.10;96.10
46634;DHT22;32362;49.986;8.026;2022-10-31T22:53:21;12.20;95.80
46634;DHT22;32362;49.986;8.026;2022-10-31T23:20:02;12.40;96.00
46634;DHT22;32362;49.986;8.026;2022-10-31T23:46:43;12.20;96.90
